Monday, September 24, 2018, 5:20 PM EDT
Back to Local

KSYR, Syracuse Hancock International Airport

Location: Syracuse, NY, United States Lat: 43.117
Local Time: 5:20 PM EDT (21:20 GMT) Lon: -76.1
Time Zone: US/Eastern Elev: 410 ft

Show me the last for .
Show Decoded

2018-09-24 16:54 METAR KSYR 242054Z 16010KT 10SM FEW200 BKN250 20/09 A3037 RMK AO2 SLP281
                 T02000094 55010 $ =
2018-09-24 15:54 METAR KSYR 241954Z 13011G19KT 10SM FEW200 BKN250 22/11 A3037 RMK AO2 SLP281
                 T02170106 $ =
2018-09-24 14:54 METAR KSYR 241854Z 11011KT 10SM FEW200 BKN250 21/11 A3038 RMK AO2 SLP284
                 T02110106 $ =
2018-09-24 13:54 METAR KSYR 241754Z 13009KT 10SM FEW200 BKN250 21/10 A3040 RMK AO2 SLP291
                 T02110100 10211 20089 57016 =
2018-09-24 12:54 METAR KSYR 241654Z 12011KT 10SM FEW200 FEW250 20/11 A3042 RMK AO2 SLP299
                 T02000106 =
2018-09-24 11:54 METAR KSYR 241554Z 08010KT 10SM FEW200 FEW250 18/12 A3043 RMK AO2 SLP300
                 T01830117 $ =
2018-09-24 10:54 METAR KSYR 241454Z 06009KT 10SM FEW200 FEW250 16/11 A3045 RMK AO2 SLP309
                 T01560111 50002 $ =
2018-09-24 09:54 METAR KSYR 241354Z 09008KT 10SM FEW022 FEW250 13/11 A3046 RMK AO2 SLP312
                 T01280106 $ =
2018-09-24 08:54 METAR KSYR 241254Z 09008KT 10SM FEW022 FEW220 11/10 A3046 RMK AO2 SLP312
                 T01060100 $ =
2018-09-24 07:54 METAR KSYR 241154Z 08008KT 10SM FEW002 FEW022 SCT220 09/09 A3044 RMK AO2 SLP307
                 T00890089 10089 20072 52023 =
2018-09-24 06:54 METAR KSYR 241054Z 08006KT 10SM FEW024 SCT220 08/08 A3042 RMK AO2 SLP299
                 T00780078 =
2018-09-24 05:54 METAR KSYR 240954Z 09008KT 10SM FEW250 07/07 A3040 RMK AO2 SLP291 T00720072 =
2018-09-24 04:54 METAR KSYR 240854Z 10006KT 10SM FEW250 07/07 A3037 RMK AO2 SLP283 T00720072
                 52007 =
2018-09-24 03:54 METAR KSYR 240754Z 08004KT 10SM FEW250 07/07 A3036 RMK AO2 SLP280 T00720072 =
2018-09-24 02:54 METAR KSYR 240654Z 09003KT 10SM FEW250 08/08 A3036 RMK AO2 SLP278 T00830083 =
2018-09-24 01:54 METAR KSYR 240554Z 11004KT 10SM FEW250 09/09 A3035 RMK AO2 SLP275 T00890089
                 10133 20083 51008 =
2018-09-24 00:54 METAR KSYR 240454Z 00000KT 10SM FEW250 09/09 A3035 RMK AO2 SLP275 T00940094
                 401940050 =
2018-09-23 23:54 METAR KSYR 240354Z 00000KT 10SM FEW250 10/10 A3034 RMK AO2 SLP270 T01000100 =
2018-09-23 22:54 METAR KSYR 240254Z 10004KT 10SM CLR 10/10 A3033 RMK AO2 SLP268 T01000100 51015 =
2018-09-23 21:54 METAR KSYR 240154Z 00000KT 10SM FEW250 12/11 A3032 RMK AO2 SLP263 T01170111 =
2018-09-23 20:54 METAR KSYR 240054Z 03003KT 10SM FEW250 13/11 A3030 RMK AO2 SLP258 T01280111 =
2018-09-23 19:54 METAR KSYR 232354Z 35007KT 10SM SCT250 13/11 A3028 RMK AO2 SLP252 T01330111
                 10194 20133 53015 =
2018-09-23 18:54 METAR KSYR 232254Z 06003KT 10SM SCT250 15/10 A3026 RMK AO2 SLP243 T01500100 =
2018-09-23 17:54 METAR KSYR 232154Z 05005KT 10SM FEW250 17/09 A3025 RMK AO2 SLP240 T01720089 =

Support USWX by starting your Amazon purchase here.